sensor_id;sensor_type;location;lat;lon;timestamp;temperature;humidity
69006;SHT31;56061;51.748;19.620;2022-12-17T00:02:12;-3.43;89.00
69006;SHT31;56061;51.748;19.620;2022-12-17T00:04:57;-3.43;89.04
69006;SHT31;56061;51.748;19.620;2022-12-17T00:07:43;-3.41;89.01
69006;SHT31;56061;51.748;19.620;2022-12-17T00:10:27;-3.37;89.00
69006;SHT31;56061;51.748;19.620;2022-12-17T00:13:19;-3.40;88.90
69006;SHT31;56061;51.748;19.620;2022-12-17T00:16:06;-3.45;89.00
69006;SHT31;56061;51.748;19.620;2022-12-17T00:18:51;-3.48;89.09
69006;SHT31;56061;51.748;19.620;2022-12-17T00:21:36;-3.53;89.12
69006;SHT31;56061;51.748;19.620;2022-12-17T00:24:21;-3.54;89.14
69006;SHT31;56061;51.748;19.620;2022-12-17T00:27:07;-3.55;89.14
69006;SHT31;56061;51.748;19.620;2022-12-17T00:29:52;-3.56;89.09
69006;SHT31;56061;51.748;19.620;2022-12-17T00:32:38;-3.58;89.11
69006;SHT31;56061;51.748;19.620;2022-12-17T00:35:22;-3.60;89.12
69006;SHT31;56061;51.748;19.620;2022-12-17T00:38:12;-3.62;89.17
69006;SHT31;56061;51.748;19.620;2022-12-17T00:41:00;-3.66;89.18
69006;SHT31;56061;51.748;19.620;2022-12-17T00:43:45;-3.70;89.25
69006;SHT31;56061;51.748;19.620;2022-12-17T00:46:30;-3.73;89.29
69006;SHT31;56061;51.748;19.620;2022-12-17T00:49:15;-3.74;89.28
69006;SHT31;56061;51.748;19.620;2022-12-17T00:52:01;-3.75;89.19
69006;SHT31;56061;51.748;19.620;2022-12-17T00:54:46;-3.76;89.12
69006;SHT31;56061;51.748;19.620;2022-12-17T00:57:31;-3.78;89.14
69006;SHT31;56061;51.748;19.620;2022-12-17T01:00:16;-3.81;89.19
69006;SHT31;56061;51.748;19.620;2022-12-17T01:03:06;-3.83;89.29
69006;SHT31;56061;51.748;19.620;2022-12-17T01:05:54;-3.84;89.30
69006;SHT31;56061;51.748;19.620;2022-12-17T01:08:40;-3.83;89.35
69006;SHT31;56061;51.748;19.620;2022-12-17T01:11:25;-3.83;89.46
69006;SHT31;56061;51.748;19.620;2022-12-17T01:14:10;-3.84;89.47
69006;SHT31;56061;51.748;19.620;2022-12-17T01:16:55;-3.83;89.52
69006;SHT31;56061;51.748;19.620;2022-12-17T01:19:40;-3.86;89.56
69006;SHT31;56061;51.748;19.620;2022-12-17T01:22:25;-3.89;89.56
69006;SHT31;56061;51.748;19.620;2022-12-17T01:25:10;-3.90;89.55
69006;SHT31;56061;51.748;19.620;2022-12-17T01:27:55;-3.91;89.61
69006;SHT31;56061;51.748;19.620;2022-12-17T01:30:40;-3.91;89.59
69006;SHT31;56061;51.748;19.620;2022-12-17T01:33:25;-3.94;89.66
69006;SHT31;56061;51.748;19.620;2022-12-17T01:36:10;-3.94;89.70
69006;SHT31;56061;51.748;19.620;2022-12-17T01:38:55;-3.94;89.73
69006;SHT31;56061;51.748;19.620;2022-12-17T01:41:40;-3.92;89.69
69006;SHT31;56061;51.748;19.620;2022-12-17T01:45:00;-3.90;89.60
69006;SHT31;56061;51.748;19.620;2022-12-17T01:47:43;-3.91;89.50
69006;SHT31;56061;51.748;19.620;2022-12-17T01:50:34;-3.95;89.41
69006;SHT31;56061;51.748;19.620;2022-12-17T01:53:25;-3.97;89.36
69006;SHT31;56061;51.748;19.620;2022-12-17T01:56:17;-3.99;89.36
69006;SHT31;56061;51.748;19.620;2022-12-17T01:59:03;-4.02;89.31
69006;SHT31;56061;51.748;19.620;2022-12-17T02:01:51;-4.02;89.35
69006;SHT31;56061;51.748;19.620;2022-12-17T02:04:37;-4.06;89.32
69006;SHT31;56061;51.748;19.620;2022-12-17T02:13:29;-4.10;89.16
69006;SHT31;56061;51.748;19.620;2022-12-17T02:16:21;-4.14;89.11
69006;SHT31;56061;51.748;19.620;2022-12-17T02:22:23;-4.17;89.09
69006;SHT31;56061;51.748;19.620;2022-12-17T02:25:40;-4.15;88.99
69006;SHT31;56061;51.748;19.620;2022-12-17T02:28:36;-4.17;88.90
69006;SHT31;56061;51.748;19.620;2022-12-17T02:31:25;-4.20;88.96
69006;SHT31;56061;51.748;19.620;2022-12-17T02:34:14;-4.20;88.92
69006;SHT31;56061;51.748;19.620;2022-12-17T02:36:59;-4.23;88.90
69006;SHT31;56061;51.748;19.620;2022-12-17T02:39:44;-4.24;88.90
69006;SHT31;56061;51.748;19.620;2022-12-17T02:42:29;-4.24;88.84
69006;SHT31;56061;51.748;19.620;2022-12-17T02:45:32;-4.24;88.81
69006;SHT31;56061;51.748;19.620;2022-12-17T02:48:37;-4.23;88.82
69006;SHT31;56061;51.748;19.620;2022-12-17T02:51:23;-4.21;88.75
69006;SHT31;56061;51.748;19.620;2022-12-17T02:54:10;-4.21;88.66
69006;SHT31;56061;51.748;19.620;2022-12-17T02:56:55;-4.25;88.60
69006;SHT31;56061;51.748;19.620;2022-12-17T02:59:40;-4.29;88.60
69006;SHT31;56061;51.748;19.620;2022-12-17T03:02:24;-4.30;88.57
69006;SHT31;56061;51.748;19.620;2022-12-17T03:05:09;-4.32;88.50
69006;SHT31;56061;51.748;19.620;2022-12-17T03:08:10;-4.36;88.50
69006;SHT31;56061;51.748;19.620;2022-12-17T03:10:56;-4.37;88.52
69006;SHT31;56061;51.748;19.620;2022-12-17T03:13:42;-4.37;88.51
69006;SHT31;56061;51.748;19.620;2022-12-17T03:16:27;-4.35;88.57
69006;SHT31;56061;51.748;19.620;2022-12-17T03:19:12;-4.35;88.50
69006;SHT31;56061;51.748;19.620;2022-12-17T03:21:57;-4.34;88.55
69006;SHT31;56061;51.748;19.620;2022-12-17T03:24:42;-4.34;88.51
69006;SHT31;56061;51.748;19.620;2022-12-17T03:27:28;-4.35;88.50
69006;SHT31;56061;51.748;19.620;2022-12-17T03:30:13;-4.37;88.57
69006;SHT31;56061;51.748;19.620;2022-12-17T03:33:02;-4.41;88.61
69006;SHT31;56061;51.748;19.620;2022-12-17T03:35:47;-4.44;88.69
69006;SHT31;56061;51.748;19.620;2022-12-17T03:38:32;-4.43;88.71
69006;SHT31;56061;51.748;19.620;2022-12-17T03:41:21;-4.41;88.67
69006;SHT31;56061;51.748;19.620;2022-12-17T03:44:06;-4.40;88.61
69006;SHT31;56061;51.748;19.620;2022-12-17T03:46:52;-4.42;88.60
69006;SHT31;56061;51.748;19.620;2022-12-17T03:49:37;-4.45;88.73
69006;SHT31;56061;51.748;19.620;2022-12-17T03:52:21;-4.48;88.87
69006;SHT31;56061;51.748;19.620;2022-12-17T03:55:06;-4.48;88.90
69006;SHT31;56061;51.748;19.620;2022-12-17T03:57:52;-4.48;88.90
69006;SHT31;56061;51.748;19.620;2022-12-17T04:00:36;-4.47;88.96
69006;SHT31;56061;51.748;19.620;2022-12-17T04:03:21;-4.45;88.90
69006;SHT31;56061;51.748;19.620;2022-12-17T04:06:06;-4.41;88.94
69006;SHT31;56061;51.748;19.620;2022-12-17T04:08:51;-4.40;88.93
69006;SHT31;56061;51.748;19.620;2022-12-17T04:11:36;-4.39;88.90
69006;SHT31;56061;51.748;19.620;2022-12-17T04:14:21;-4.38;88.90
69006;SHT31;56061;51.748;19.620;2022-12-17T04:17:06;-4.39;88.90
69006;SHT31;56061;51.748;19.620;2022-12-17T04:19:50;-4.40;88.89
69006;SHT31;56061;51.748;19.620;2022-12-17T04:22:35;-4.42;88.87
69006;SHT31;56061;51.748;19.620;2022-12-17T04:25:20;-4.44;88.75
69006;SHT31;56061;51.748;19.620;2022-12-17T04:28:05;-4.46;88.74
69006;SHT31;56061;51.748;19.620;2022-12-17T04:30:50;-4.46;88.68
69006;SHT31;56061;51.748;19.620;2022-12-17T04:33:35;-4.46;88.70
69006;SHT31;56061;51.748;19.620;2022-12-17T04:36:22;-4.45;88.56
69006;SHT31;56061;51.748;19.620;2022-12-17T04:39:07;-4.50;88.50
69006;SHT31;56061;51.748;19.620;2022-12-17T04:41:52;-4.54;88.50
69006;SHT31;56061;51.748;19.620;2022-12-17T04:44:37;-4.56;88.53
69006;SHT31;56061;51.748;19.620;2022-12-17T04:47:22;-4.59;88.40
69006;SHT31;56061;51.748;19.620;2022-12-17T04:50:07;-4.64;88.31
69006;SHT31;56061;51.748;19.620;2022-12-17T04:53:12;-4.69;88.29
69006;SHT31;56061;51.748;19.620;2022-12-17T04:55:57;-4.74;88.23
69006;SHT31;56061;51.748;19.620;2022-12-17T04:58:42;-4.77;88.38
69006;SHT31;56061;51.748;19.620;2022-12-17T05:01:27;-4.81;88.31
69006;SHT31;56061;51.748;19.620;2022-12-17T05:04:13;-4.86;88.30
69006;SHT31;56061;51.748;19.620;2022-12-17T05:06:58;-4.90;88.33
69006;SHT31;56061;51.748;19.620;2022-12-17T05:09:43;-4.95;88.32
69006;SHT31;56061;51.748;19.620;2022-12-17T05:12:28;-5.01;88.38
69006;SHT31;56061;51.748;19.620;2022-12-17T05:15:12;-5.04;88.40
69006;SHT31;56061;51.748;19.620;2022-12-17T05:18:07;-5.06;88.40
69006;SHT31;56061;51.748;19.620;2022-12-17T05:20:53;-5.08;88.43
69006;SHT31;56061;51.748;19.620;2022-12-17T05:23:38;-5.11;88.40
69006;SHT31;56061;51.748;19.620;2022-12-17T05:26:24;-5.16;88.48
69006;SHT31;56061;51.748;19.620;2022-12-17T05:29:11;-5.20;88.61
69006;SHT31;56061;51.748;19.620;2022-12-17T05:31:57;-5.24;88.76
69006;SHT31;56061;51.748;19.620;2022-12-17T05:34:43;-5.25;88.81
69006;SHT31;56061;51.748;19.620;2022-12-17T05:37:28;-5.28;88.79
69006;SHT31;56061;51.748;19.620;2022-12-17T05:40:12;-5.26;88.81
69006;SHT31;56061;51.748;19.620;2022-12-17T05:42:58;-5.24;88.81
69006;SHT31;56061;51.748;19.620;2022-12-17T05:45:49;-5.24;88.70
69006;SHT31;56061;51.748;19.620;2022-12-17T05:48:36;-5.25;88.67
69006;SHT31;56061;51.748;19.620;2022-12-17T05:51:21;-5.25;88.67
69006;SHT31;56061;51.748;19.620;2022-12-17T05:54:06;-5.27;88.44
69006;SHT31;56061;51.748;19.620;2022-12-17T05:56:52;-5.27;88.38
69006;SHT31;56061;51.748;19.620;2022-12-17T05:59:38;-5.26;88.33
69006;SHT31;56061;51.748;19.620;2022-12-17T06:02:24;-5.26;88.20
69006;SHT31;56061;51.748;19.620;2022-12-17T06:05:10;-5.26;88.10
69006;SHT31;56061;51.748;19.620;2022-12-17T06:08:02;-5.32;87.96
69006;SHT31;56061;51.748;19.620;2022-12-17T06:10:50;-5.36;87.92
69006;SHT31;56061;51.748;19.620;2022-12-17T06:13:35;-5.39;88.00
69006;SHT31;56061;51.748;19.620;2022-12-17T06:16:20;-5.38;88.14
69006;SHT31;56061;51.748;19.620;2022-12-17T06:19:06;-5.35;88.08
69006;SHT31;56061;51.748;19.620;2022-12-17T06:21:51;-5.37;87.95
69006;SHT31;56061;51.748;19.620;2022-12-17T06:24:35;-5.39;87.97
69006;SHT31;56061;51.748;19.620;2022-12-17T06:27:20;-5.40;88.05
69006;SHT31;56061;51.748;19.620;2022-12-17T06:30:05;-5.41;87.95
69006;SHT31;56061;51.748;19.620;2022-12-17T06:32:50;-5.43;87.91
69006;SHT31;56061;51.748;19.620;2022-12-17T06:35:35;-5.45;87.90
69006;SHT31;56061;51.748;19.620;2022-12-17T06:38:20;-5.45;87.90
69006;SHT31;56061;51.748;19.620;2022-12-17T06:41:05;-5.43;87.97
69006;SHT31;56061;51.748;19.620;2022-12-17T06:43:50;-5.39;87.97
69006;SHT31;56061;51.748;19.620;2022-12-17T06:46:35;-5.37;87.97
69006;SHT31;56061;51.748;19.620;2022-12-17T06:49:21;-5.35;87.94
69006;SHT31;56061;51.748;19.620;2022-12-17T06:52:06;-5.36;87.84
69006;SHT31;56061;51.748;19.620;2022-12-17T06:54:51;-5.39;87.75
69006;SHT31;56061;51.748;19.620;2022-12-17T06:57:36;-5.39;87.74
69006;SHT31;56061;51.748;19.620;2022-12-17T07:00:22;-5.40;87.64
69006;SHT31;56061;51.748;19.620;2022-12-17T07:03:08;-5.38;87.62
69006;SHT31;56061;51.748;19.620;2022-12-17T07:05:58;-5.37;87.51
69006;SHT31;56061;51.748;19.620;2022-12-17T07:08:45;-5.36;87.56
69006;SHT31;56061;51.748;19.620;2022-12-17T07:11:31;-5.35;87.49
69006;SHT31;56061;51.748;19.620;2022-12-17T07:14:16;-5.35;87.43
69006;SHT31;56061;51.748;19.620;2022-12-17T07:17:01;-5.36;87.37
69006;SHT31;56061;51.748;19.620;2022-12-17T07:19:46;-5.37;87.24
69006;SHT31;56061;51.748;19.620;2022-12-17T07:22:31;-5.37;87.25
69006;SHT31;56061;51.748;19.620;2022-12-17T07:25:16;-5.35;87.27
69006;SHT31;56061;51.748;19.620;2022-12-17T07:28:01;-5.31;87.26
69006;SHT31;56061;51.748;19.620;2022-12-17T07:30:46;-5.29;87.20
69006;SHT31;56061;51.748;19.620;2022-12-17T07:33:31;-5.25;87.20
69006;SHT31;56061;51.748;19.620;2022-12-17T07:36:16;-5.22;87.18
69006;SHT31;56061;51.748;19.620;2022-12-17T07:39:00;-5.23;87.06
69006;SHT31;56061;51.748;19.620;2022-12-17T07:41:45;-5.24;87.01
69006;SHT31;56061;51.748;19.620;2022-12-17T07:44:30;-5.25;87.00
69006;SHT31;56061;51.748;19.620;2022-12-17T07:47:15;-5.25;87.01
69006;SHT31;56061;51.748;19.620;2022-12-17T07:50:00;-5.25;86.89
69006;SHT31;56061;51.748;19.620;2022-12-17T07:52:45;-5.23;86.89
69006;SHT31;56061;51.748;19.620;2022-12-17T07:55:30;-5.21;86.90
69006;SHT31;56061;51.748;19.620;2022-12-17T07:58:15;-5.16;86.90
69006;SHT31;56061;51.748;19.620;2022-12-17T08:01:00;-5.14;86.83
69006;SHT31;56061;51.748;19.620;2022-12-17T08:03:46;-5.15;86.82
69006;SHT31;56061;51.748;19.620;2022-12-17T08:06:31;-5.16;86.86
69006;SHT31;56061;51.748;19.620;2022-12-17T08:09:20;-5.16;86.96
69006;SHT31;56061;51.748;19.620;2022-12-17T08:12:05;-5.11;87.00
69006;SHT31;56061;51.748;19.620;2022-12-17T08:14:50;-5.05;87.00
69006;SHT31;56061;51.748;19.620;2022-12-17T08:17:35;-4.99;86.91
69006;SHT31;56061;51.748;19.620;2022-12-17T08:20:20;-4.95;86.89
69006;SHT31;56061;51.748;19.620;2022-12-17T08:23:05;-4.94;86.81
69006;SHT31;56061;51.748;19.620;2022-12-17T08:25:50;-4.93;86.88
69006;SHT31;56061;51.748;19.620;2022-12-17T08:28:35;-4.89;86.93
69006;SHT31;56061;51.748;19.620;2022-12-17T08:31:22;-4.84;87.00
69006;SHT31;56061;51.748;19.620;2022-12-17T08:34:08;-4.82;86.87
69006;SHT31;56061;51.748;19.620;2022-12-17T08:36:53;-4.79;86.91
69006;SHT31;56061;51.748;19.620;2022-12-17T08:39:38;-4.71;87.05
69006;SHT31;56061;51.748;19.620;2022-12-17T08:42:23;-4.60;87.00
69006;SHT31;56061;51.748;19.620;2022-12-17T08:45:09;-4.52;86.86
69006;SHT31;56061;51.748;19.620;2022-12-17T08:48:04;-4.49;86.73
69006;SHT31;56061;51.748;19.620;2022-12-17T08:50:51;-4.45;86.53
69006;SHT31;56061;51.748;19.620;2022-12-17T08:53:37;-4.46;86.43
69006;SHT31;56061;51.748;19.620;2022-12-17T08:56:22;-4.43;86.48
69006;SHT31;56061;51.748;19.620;2022-12-17T08:59:07;-4.41;86.38
69006;SHT31;56061;51.748;19.620;2022-12-17T09:01:52;-4.39;86.28
69006;SHT31;56061;51.748;19.620;2022-12-17T09:04:37;-4.34;86.31
69006;SHT31;56061;51.748;19.620;2022-12-17T09:07:22;-4.29;86.08
69006;SHT31;56061;51.748;19.620;2022-12-17T09:10:07;-4.29;86.00
69006;SHT31;56061;51.748;19.620;2022-12-17T09:12:52;-4.32;85.71
69006;SHT31;56061;51.748;19.620;2022-12-17T09:15:37;-4.36;85.67
69006;SHT31;56061;51.748;19.620;2022-12-17T09:18:22;-4.36;85.66
69006;SHT31;56061;51.748;19.620;2022-12-17T09:21:07;-4.38;85.60
69006;SHT31;56061;51.748;19.620;2022-12-17T09:23:52;-4.34;85.63
69006;SHT31;56061;51.748;19.620;2022-12-17T09:26:37;-4.30;85.56
69006;SHT31;56061;51.748;19.620;2022-12-17T09:29:22;-4.28;85.38
69006;SHT31;56061;51.748;19.620;2022-12-17T09:32:07;-4.28;85.33
69006;SHT31;56061;51.748;19.620;2022-12-17T09:34:53;-4.27;85.40
69006;SHT31;56061;51.748;19.620;2022-12-17T09:37:38;-4.24;85.54
69006;SHT31;56061;51.748;19.620;2022-12-17T09:40:23;-4.17;85.60
69006;SHT31;56061;51.748;19.620;2022-12-17T09:43:16;-4.14;85.38
69006;SHT31;56061;51.748;19.620;2022-12-17T09:46:24;-4.09;85.19
69006;SHT31;56061;51.748;19.620;2022-12-17T09:49:33;-4.05;84.91
69006;SHT31;56061;51.748;19.620;2022-12-17T09:52:54;-4.02;84.89
69006;SHT31;56061;51.748;19.620;2022-12-17T09:55:40;-4.05;84.85
69006;SHT31;56061;51.748;19.620;2022-12-17T09:58:33;-4.05;84.84
69006;SHT31;56061;51.748;19.620;2022-12-17T10:01:23;-4.08;84.59
69006;SHT31;56061;51.748;19.620;2022-12-17T10:04:19;-4.17;84.35
69006;SHT31;56061;51.748;19.620;2022-12-17T10:07:31;-4.21;84.57
69006;SHT31;56061;51.748;19.620;2022-12-17T10:10:26;-4.23;84.69
69006;SHT31;56061;51.748;19.620;2022-12-17T10:13:16;-4.22;84.62
69006;SHT31;56061;51.748;19.620;2022-12-17T10:16:19;-4.21;84.59
69006;SHT31;56061;51.748;19.620;2022-12-17T10:19:27;-4.23;84.46
69006;SHT31;56061;51.748;19.620;2022-12-17T10:22:16;-4.26;84.49
69006;SHT31;56061;51.748;19.620;2022-12-17T10:25:19;-4.26;84.55
69006;SHT31;56061;51.748;19.620;2022-12-17T10:28:10;-4.26;84.55
69006;SHT31;56061;51.748;19.620;2022-12-17T10:31:06;-4.26;84.27
69006;SHT31;56061;51.748;19.620;2022-12-17T10:34:04;-4.29;84.00
69006;SHT31;56061;51.748;19.620;2022-12-17T10:36:52;-4.31;84.02
69006;SHT31;56061;51.748;19.620;2022-12-17T10:39:38;-4.37;84.15
69006;SHT31;56061;51.748;19.620;2022-12-17T10:42:26;-4.41;84.20
69006;SHT31;56061;51.748;19.620;2022-12-17T10:45:23;-4.39;84.47
69006;SHT31;56061;51.748;19.620;2022-12-17T10:48:18;-4.31;84.53
69006;SHT31;56061;51.748;19.620;2022-12-17T10:51:15;-4.25;84.23
69006;SHT31;56061;51.748;19.620;2022-12-17T10:54:25;-4.29;84.17
69006;SHT31;56061;51.748;19.620;2022-12-17T11:00:28;-4.31;84.13
69006;SHT31;56061;51.748;19.620;2022-12-17T11:06:26;-4.44;84.03
69006;SHT31;56061;51.748;19.620;2022-12-17T11:12:13;-4.40;84.04
69006;SHT31;56061;51.748;19.620;2022-12-17T11:15:21;-4.38;83.92
69006;SHT31;56061;51.748;19.620;2022-12-17T11:18:16;-4.38;83.84
69006;SHT31;56061;51.748;19.620;2022-12-17T11:21:11;-4.41;83.71
69006;SHT31;56061;51.748;19.620;2022-12-17T11:24:16;-4.48;83.72
69006;SHT31;56061;51.748;19.620;2022-12-17T11:27:09;-4.48;83.95
69006;SHT31;56061;51.748;19.620;2022-12-17T11:30:10;-4.46;84.01
69006;SHT31;56061;51.748;19.620;2022-12-17T11:33:03;-4.42;84.11
69006;SHT31;56061;51.748;19.620;2022-12-17T11:36:32;-4.37;84.02
69006;SHT31;56061;51.748;19.620;2022-12-17T11:39:26;-4.33;83.91
69006;SHT31;56061;51.748;19.620;2022-12-17T11:42:32;-4.35;83.79
69006;SHT31;56061;51.748;19.620;2022-12-17T11:45:30;-4.40;83.65
69006;SHT31;56061;51.748;19.620;2022-12-17T11:48:36;-4.44;83.76
69006;SHT31;56061;51.748;19.620;2022-12-17T11:51:46;-4.41;83.93
69006;SHT31;56061;51.748;19.620;2022-12-17T11:58:30;-4.44;83.55
69006;SHT31;56061;51.748;19.620;2022-12-17T12:01:37;-4.46;83.58
69006;SHT31;56061;51.748;19.620;2022-12-17T12:20:06;-4.48;83.75
69006;SHT31;56061;51.748;19.620;2022-12-17T12:23:34;-4.47;83.69
69006;SHT31;56061;51.748;19.620;2022-12-17T12:26:55;-4.49;83.74
69006;SHT31;56061;51.748;19.620;2022-12-17T12:30:13;-4.53;83.66
69006;SHT31;56061;51.748;19.620;2022-12-17T12:36:16;-4.54;83.83
69006;SHT31;56061;51.748;19.620;2022-12-17T12:39:04;-4.50;83.86
69006;SHT31;56061;51.748;19.620;2022-12-17T12:41:58;-4.49;83.75
69006;SHT31;56061;51.748;19.620;2022-12-17T12:45:05;-4.47;83.73
69006;SHT31;56061;51.748;19.620;2022-12-17T12:48:35;-4.44;83.83
69006;SHT31;56061;51.748;19.620;2022-12-17T12:51:29;-4.45;83.80
69006;SHT31;56061;51.748;19.620;2022-12-17T12:54:28;-4.50;83.76
69006;SHT31;56061;51.748;19.620;2022-12-17T13:03:34;-4.64;83.80
69006;SHT31;56061;51.748;19.620;2022-12-17T13:06:37;-4.67;83.90
69006;SHT31;56061;51.748;19.620;2022-12-17T13:11:44;-4.64;84.05
69006;SHT31;56061;51.748;19.620;2022-12-17T13:14:15;-4.64;84.13
69006;SHT31;56061;51.748;19.620;2022-12-17T13:22:10;-4.70;84.26
69006;SHT31;56061;51.748;19.620;2022-12-17T13:27:44;-4.78;84.30
69006;SHT31;56061;51.748;19.620;2022-12-17T13:35:44;-4.81;84.40
69006;SHT31;56061;51.748;19.620;2022-12-17T13:38:30;-4.84;84.47
69006;SHT31;56061;51.748;19.620;2022-12-17T13:41:24;-4.90;84.48
69006;SHT31;56061;51.748;19.620;2022-12-17T13:43:55;-4.95;84.59
69006;SHT31;56061;51.748;19.620;2022-12-17T13:46:34;-5.00;84.58
69006;SHT31;56061;51.748;19.620;2022-12-17T13:49:25;-5.06;84.76
69006;SHT31;56061;51.748;19.620;2022-12-17T13:52:05;-5.09;84.92
69006;SHT31;56061;51.748;19.620;2022-12-17T13:54:42;-5.09;85.09
69006;SHT31;56061;51.748;19.620;2022-12-17T13:57:11;-5.08;85.07
69006;SHT31;56061;51.748;19.620;2022-12-17T13:59:49;-5.09;85.21
69006;SHT31;56061;51.748;19.620;2022-12-17T14:02:33;-5.12;85.30
69006;SHT31;56061;51.748;19.620;2022-12-17T14:05:05;-5.16;85.31
69006;SHT31;56061;51.748;19.620;2022-12-17T14:07:46;-5.21;85.40
69006;SHT31;56061;51.748;19.620;2022-12-17T14:10:15;-5.26;85.43
69006;SHT31;56061;51.748;19.620;2022-12-17T14:12:44;-5.30;85.65
69006;SHT31;56061;51.748;19.620;2022-12-17T14:15:30;-5.32;85.70
69006;SHT31;56061;51.748;19.620;2022-12-17T14:17:57;-5.34;85.80
69006;SHT31;56061;51.748;19.620;2022-12-17T14:20:26;-5.35;85.91
69006;SHT31;56061;51.748;19.620;2022-12-17T14:22:59;-5.34;85.95
69006;SHT31;56061;51.748;19.620;2022-12-17T14:25:34;-5.37;85.97
69006;SHT31;56061;51.748;19.620;2022-12-17T14:28:04;-5.38;86.09
69006;SHT31;56061;51.748;19.620;2022-12-17T14:30:46;-5.40;86.14
69006;SHT31;56061;51.748;19.620;2022-12-17T14:33:33;-5.46;86.17
69006;SHT31;56061;51.748;19.620;2022-12-17T14:36:06;-5.52;86.29
69006;SHT31;56061;51.748;19.620;2022-12-17T14:38:56;-5.58;86.51
69006;SHT31;56061;51.748;19.620;2022-12-17T14:41:34;-5.56;86.69
69006;SHT31;56061;51.748;19.620;2022-12-17T14:44:24;-5.54;86.63
69006;SHT31;56061;51.748;19.620;2022-12-17T14:47:05;-5.55;86.59
69006;SHT31;56061;51.748;19.620;2022-12-17T14:49:55;-5.57;86.52
69006;SHT31;56061;51.748;19.620;2022-12-17T14:58:05;-5.74;86.58
69006;SHT31;56061;51.748;19.620;2022-12-17T15:00:39;-5.80;86.64
69006;SHT31;56061;51.748;19.620;2022-12-17T15:03:39;-5.84;86.63
69006;SHT31;56061;51.748;19.620;2022-12-17T15:06:09;-5.84;86.70
69006;SHT31;56061;51.748;19.620;2022-12-17T15:08:44;-5.84;86.65
69006;SHT31;56061;51.748;19.620;2022-12-17T15:11:16;-5.83;86.77
69006;SHT31;56061;51.748;19.620;2022-12-17T15:13:51;-5.82;86.77
69006;SHT31;56061;51.748;19.620;2022-12-17T15:16:22;-5.82;86.69
69006;SHT31;56061;51.748;19.620;2022-12-17T15:18:48;-5.87;86.60
69006;SHT31;56061;51.748;19.620;2022-12-17T15:21:15;-5.89;86.72
69006;SHT31;56061;51.748;19.620;2022-12-17T15:23:44;-5.93;86.71
69006;SHT31;56061;51.748;19.620;2022-12-17T15:26:13;-5.94;86.81
69006;SHT31;56061;51.748;19.620;2022-12-17T15:28:40;-5.95;86.96
69006;SHT31;56061;51.748;19.620;2022-12-17T15:31:08;-5.97;87.15
69006;SHT31;56061;51.748;19.620;2022-12-17T15:33:38;-5.98;87.12
69006;SHT31;56061;51.748;19.620;2022-12-17T15:36:05;-5.98;87.10
69006;SHT31;56061;51.748;19.620;2022-12-17T15:38:33;-6.01;87.15
69006;SHT31;56061;51.748;19.620;2022-12-17T15:41:00;-6.02;87.05
69006;SHT31;56061;51.748;19.620;2022-12-17T15:43:48;-6.03;87.31
69006;SHT31;56061;51.748;19.620;2022-12-17T15:46:15;-6.03;87.31
69006;SHT31;56061;51.748;19.620;2022-12-17T15:48:41;-6.01;87.45
69006;SHT31;56061;51.748;19.620;2022-12-17T15:51:15;-5.97;87.41
69006;SHT31;56061;51.748;19.620;2022-12-17T15:53:45;-5.95;87.47
69006;SHT31;56061;51.748;19.620;2022-12-17T15:56:20;-5.95;87.39
69006;SHT31;56061;51.748;19.620;2022-12-17T15:58:49;-5.94;87.34
69006;SHT31;56061;51.748;19.620;2022-12-17T16:01:16;-5.94;87.44
69006;SHT31;56061;51.748;19.620;2022-12-17T16:03:45;-5.93;87.41
69006;SHT31;56061;51.748;19.620;2022-12-17T16:06:11;-5.91;87.30
69006;SHT31;56061;51.748;19.620;2022-12-17T16:08:38;-5.90;87.40
69006;SHT31;56061;51.748;19.620;2022-12-17T16:11:06;-5.86;87.39
69006;SHT31;56061;51.748;19.620;2022-12-17T16:13:35;-5.82;87.43
69006;SHT31;56061;51.748;19.620;2022-12-17T16:16:04;-5.80;87.39
69006;SHT31;56061;51.748;19.620;2022-12-17T16:18:31;-5.80;87.35
69006;SHT31;56061;51.748;19.620;2022-12-17T16:21:02;-5.82;87.45
69006;SHT31;56061;51.748;19.620;2022-12-17T16:23:33;-5.83;87.68
69006;SHT31;56061;51.748;19.620;2022-12-17T16:26:01;-5.84;87.75
69006;SHT31;56061;51.748;19.620;2022-12-17T16:28:30;-5.79;87.78
69006;SHT31;56061;51.748;19.620;2022-12-17T16:31:02;-5.75;87.90
69006;SHT31;56061;51.748;19.620;2022-12-17T16:33:33;-5.72;87.97
69006;SHT31;56061;51.748;19.620;2022-12-17T16:36:04;-5.70;88.17
69006;SHT31;56061;51.748;19.620;2022-12-17T16:38:33;-5.70;88.23
69006;SHT31;56061;51.748;19.620;2022-12-17T16:41:01;-5.69;88.29
69006;SHT31;56061;51.748;19.620;2022-12-17T16:43:32;-5.67;88.48
69006;SHT31;56061;51.748;19.620;2022-12-17T16:46:00;-5.64;88.60
69006;SHT31;56061;51.748;19.620;2022-12-17T16:48:27;-5.59;88.81
69006;SHT31;56061;51.748;19.620;2022-12-17T16:50:53;-5.53;88.80
69006;SHT31;56061;51.748;19.620;2022-12-17T16:53:20;-5.45;88.81
69006;SHT31;56061;51.748;19.620;2022-12-17T16:55:47;-5.38;88.79
69006;SHT31;56061;51.748;19.620;2022-12-17T16:58:15;-5.32;88.86
69006;SHT31;56061;51.748;19.620;2022-12-17T17:00:43;-5.29;88.83
69006;SHT31;56061;51.748;19.620;2022-12-17T17:03:11;-5.28;88.79
69006;SHT31;56061;51.748;19.620;2022-12-17T17:05:38;-5.27;88.83
69006;SHT31;56061;51.748;19.620;2022-12-17T17:08:05;-5.23;88.86
69006;SHT31;56061;51.748;19.620;2022-12-17T17:10:34;-5.18;88.93
69006;SHT31;56061;51.748;19.620;2022-12-17T17:13:02;-5.11;88.96
69006;SHT31;56061;51.748;19.620;2022-12-17T17:15:30;-5.05;89.03
69006;SHT31;56061;51.748;19.620;2022-12-17T17:17:57;-5.00;89.06
69006;SHT31;56061;51.748;19.620;2022-12-17T17:20:27;-4.97;89.11
69006;SHT31;56061;51.748;19.620;2022-12-17T17:22:57;-4.95;89.27
69006;SHT31;56061;51.748;19.620;2022-12-17T17:25:24;-4.94;89.19
69006;SHT31;56061;51.748;19.620;2022-12-17T17:28:11;-4.93;89.16
69006;SHT31;56061;51.748;19.620;2022-12-17T17:30:38;-4.92;89.17
69006;SHT31;56061;51.748;19.620;2022-12-17T17:33:05;-4.87;89.17
69006;SHT31;56061;51.748;19.620;2022-12-17T17:35:31;-4.82;89.26
69006;SHT31;56061;51.748;19.620;2022-12-17T17:37:57;-4.77;89.30
69006;SHT31;56061;51.748;19.620;2022-12-17T17:40:24;-4.72;89.29
69006;SHT31;56061;51.748;19.620;2022-12-17T17:42:51;-4.69;89.30
69006;SHT31;56061;51.748;19.620;2022-12-17T17:45:18;-4.66;89.24
69006;SHT31;56061;51.748;19.620;2022-12-17T17:47:45;-4.64;89.19
69006;SHT31;56061;51.748;19.620;2022-12-17T17:50:11;-4.62;89.21
69006;SHT31;56061;51.748;19.620;2022-12-17T17:52:37;-4.60;89.14
69006;SHT31;56061;51.748;19.620;2022-12-17T17:55:04;-4.57;89.10
69006;SHT31;56061;51.748;19.620;2022-12-17T17:57:31;-4.52;89.11
69006;SHT31;56061;51.748;19.620;2022-12-17T17:59:58;-4.46;89.20
69006;SHT31;56061;51.748;19.620;2022-12-17T18:02:24;-4.40;89.20
69006;SHT31;56061;51.748;19.620;2022-12-17T18:04:51;-4.35;89.07
69006;SHT31;56061;51.748;19.620;2022-12-17T18:07:18;-4.31;89.01
69006;SHT31;56061;51.748;19.620;2022-12-17T18:09:53;-4.28;88.97